KCHK/CHK METAR and TAF weather

Enter ICAO airport designator
Station Type Date Time Source
KCHK METAR 2021/07/26 12:35 UTC NOAA

KCHK 261235Z AUTO 05005KT 10SM CLR 23/21 A2998 RMK AO2 T02320210


Station Type Date Time Source
KCHK Decoded METAR 2021/07/26 12:35 UTC NOAA

Chickasha, Chickasha Municipal Airport, OK, United States (KCHK) 35-05-46N 097-57-58W
Jul 26, 2021 - 08:35 AM EDT / 2021.07.26 1235 UTC
Wind: from the NE (050 degrees) at 6 MPH (5 KT):0
Visibility: 10 mile(s):0
Sky conditions: clear
Temperature: 73.8 F (23.2 C)
Dew Point: 69.8 F (21.0 C)
Relative Humidity: 87%
Pressure (altimeter): 29.98 in. Hg (1015 hPa)
ob: KCHK 261235Z AUTO 05005KT 10SM CLR 23/21 A2998 RMK AO2 T02320210
cycle: 12

Station Type Date Time Source
KCHK TAF UTC NOAA

Error!

Example: see airport list